createdAt,value
2022-11-21T00:01:01.862Z,4.42
2022-11-21T00:03:30.897Z,4.31
2022-11-21T00:05:59.993Z,4.06
2022-11-21T00:08:33.171Z,4.06
2022-11-21T00:10:59.863Z,4.08
2022-11-21T00:13:28.876Z,4.10
2022-11-21T00:15:55.457Z,4.11
2022-11-21T00:18:22.220Z,4.13
2022-11-21T00:20:51.317Z,4.15
2022-11-21T00:23:18.021Z,4.17
2022-11-21T00:25:47.394Z,4.17
2022-11-21T00:28:13.964Z,4.20
2022-11-21T00:30:42.624Z,4.25
2022-11-21T00:33:09.152Z,4.28
2022-11-21T00:35:35.831Z,4.32
2022-11-21T00:38:02.420Z,4.33
2022-11-21T00:40:28.959Z,4.35
2022-11-21T00:42:55.480Z,4.36
2022-11-21T00:45:24.497Z,4.36
2022-11-21T00:47:51.351Z,4.30
2022-11-21T00:50:18.023Z,4.24
2022-11-21T00:52:46.905Z,4.12
2022-11-21T00:55:13.449Z,3.89
2022-11-21T00:57:41.126Z,3.87
2022-11-21T01:00:08.046Z,3.85
2022-11-21T01:02:34.648Z,3.86
2022-11-21T01:05:01.243Z,3.88
2022-11-21T01:07:30.448Z,3.97
2022-11-21T01:10:00.126Z,3.94
2022-11-21T01:12:26.735Z,3.97
2022-11-21T01:14:53.240Z,4.05
2022-11-21T01:17:22.805Z,3.95
2022-11-21T01:19:49.355Z,3.98
2022-11-21T01:22:18.351Z,4.00
2022-11-21T01:24:44.941Z,4.04
2022-11-21T01:27:11.580Z,4.04
2022-11-21T01:29:38.628Z,4.03
2022-11-21T01:32:07.607Z,3.99
2022-11-21T01:34:34.213Z,4.00
2022-11-21T01:37:01.336Z,4.00
2022-11-21T01:39:30.957Z,3.98
2022-11-21T01:41:57.645Z,3.97
2022-11-21T01:44:25.401Z,3.91
2022-11-21T01:46:52.678Z,3.65
2022-11-21T01:49:24.783Z,3.41
2022-11-21T01:52:04.765Z,3.48
2022-11-21T01:54:57.681Z,3.50
2022-11-21T01:57:26.022Z,3.47
2022-11-21T01:59:52.602Z,3.58
2022-11-21T02:02:20.918Z,3.44
2022-11-21T02:04:47.548Z,3.51
2022-11-21T02:07:14.184Z,3.57
2022-11-21T02:09:42.022Z,3.52
2022-11-21T02:12:14.010Z,3.53
2022-11-21T02:14:41.121Z,3.55
2022-11-21T02:17:07.748Z,3.59
2022-11-21T02:19:42.153Z,3.61
2022-11-21T02:22:13.290Z,3.60
2022-11-21T02:24:44.086Z,3.62
2022-11-21T02:27:10.613Z,3.58
2022-11-21T02:29:37.559Z,3.60
2022-11-21T02:32:05.439Z,3.62
2022-11-21T02:34:32.469Z,3.61
2022-11-21T02:37:03.769Z,3.60
2022-11-21T02:39:34.072Z,3.56
2022-11-21T02:42:04.732Z,3.53
2022-11-21T02:44:43.662Z,3.52
2022-11-21T02:47:12.615Z,3.53
2022-11-21T02:49:56.897Z,3.53
2022-11-21T02:52:23.441Z,3.50
2022-11-21T02:54:50.008Z,3.46
2022-11-21T02:57:16.555Z,3.36
2022-11-21T02:59:43.584Z,3.32
2022-11-21T03:02:12.593Z,3.30
2022-11-21T03:04:39.229Z,3.30
2022-11-21T03:07:05.879Z,3.19
2022-11-21T03:09:37.330Z,3.17
2022-11-21T03:12:07.406Z,3.23
2022-11-21T03:14:37.060Z,3.22
2022-11-21T03:17:04.012Z,3.26
2022-11-21T03:19:32.921Z,3.28
2022-11-21T03:22:01.866Z,3.30
2022-11-21T03:24:28.644Z,3.28
2022-11-21T03:26:55.412Z,3.28
2022-11-21T03:29:22.410Z,3.23
2022-11-21T03:31:51.413Z,3.21
2022-11-21T03:34:18.030Z,3.19
2022-11-21T03:36:47.018Z,3.19
2022-11-21T03:39:16.097Z,3.08
2022-11-21T03:41:42.641Z,3.05
2022-11-21T03:44:12.046Z,3.03
2022-11-21T03:46:41.791Z,3.09
2022-11-21T03:49:13.933Z,3.10
2022-11-21T03:51:43.616Z,3.08
2022-11-21T03:54:13.377Z,3.14
2022-11-21T03:56:42.279Z,3.20
2022-11-21T03:59:08.844Z,3.23
2022-11-21T04:01:37.644Z,3.31
2022-11-21T04:04:07.080Z,3.34
2022-11-21T04:06:36.116Z,3.38
2022-11-21T04:09:02.717Z,3.34
2022-11-21T04:11:29.287Z,3.31
2022-11-21T04:13:55.905Z,3.28
2022-11-21T04:16:22.980Z,3.26
2022-11-21T04:18:49.658Z,3.23
2022-11-21T04:21:18.622Z,3.24
2022-11-21T04:23:45.240Z,3.24
2022-11-21T04:26:11.834Z,3.25
2022-11-21T04:28:38.870Z,3.24
2022-11-21T04:31:10.451Z,3.22
2022-11-21T04:33:40.590Z,3.22
2022-11-21T04:36:07.996Z,3.24
2022-11-21T04:38:34.650Z,3.23
2022-11-21T04:41:01.319Z,3.20
2022-11-21T04:43:30.134Z,3.19
2022-11-21T04:45:57.097Z,3.21
2022-11-21T04:48:24.773Z,3.25
2022-11-21T04:50:51.334Z,3.32
2022-11-21T04:53:20.348Z,3.35
2022-11-21T04:55:50.160Z,3.38
2022-11-21T04:58:16.812Z,3.37
2022-11-21T05:00:43.455Z,3.41
2022-11-21T05:03:10.138Z,3.49
2022-11-21T05:05:36.861Z,3.56
2022-11-21T05:08:06.865Z,3.65
2022-11-21T05:10:55.980Z,3.68
2022-11-21T05:13:22.636Z,3.62
2022-11-21T05:15:53.490Z,3.52
2022-11-21T05:18:20.460Z,3.52
2022-11-21T05:20:47.107Z,3.58
2022-11-21T05:23:16.053Z,3.56
2022-11-21T05:25:45.134Z,3.51
2022-11-21T05:28:14.679Z,3.26
2022-11-21T05:30:43.532Z,3.19
2022-11-21T05:33:10.065Z,3.06
2022-11-21T05:35:42.938Z,3.08
2022-11-21T05:38:12.898Z,3.04
2022-11-21T05:40:41.794Z,3.01
2022-11-21T05:43:28.768Z,3.01
2022-11-21T05:45:55.490Z,2.99
2022-11-21T05:48:24.803Z,2.97
2022-11-21T05:50:53.826Z,2.99
2022-11-21T05:53:20.478Z,2.99
2022-11-21T05:55:47.087Z,2.99
2022-11-21T05:58:13.971Z,3.02
2022-11-21T06:00:43.063Z,3.09
2022-11-21T06:03:28.044Z,3.12
2022-11-21T06:06:24.706Z,3.16
2022-11-21T06:08:52.027Z,3.21
2022-11-21T06:11:18.723Z,3.22
2022-11-21T06:13:45.586Z,3.23
2022-11-21T06:16:20.231Z,3.29
2022-11-21T06:18:47.951Z,3.33
2022-11-21T06:21:14.533Z,3.37
2022-11-21T06:23:41.175Z,3.41
2022-11-21T06:26:09.253Z,3.45
2022-11-21T06:28:45.712Z,3.49
2022-11-21T06:31:21.220Z,3.60
2022-11-21T06:34:01.718Z,3.62
2022-11-21T06:36:31.065Z,3.59
2022-11-21T06:39:02.386Z,3.61
2022-11-21T06:41:32.142Z,3.61
2022-11-21T06:44:00.110Z,3.65
2022-11-21T06:46:26.703Z,3.70
2022-11-21T06:48:53.656Z,3.78
2022-11-21T06:51:23.207Z,3.84
2022-11-21T06:53:57.083Z,3.86
2022-11-21T06:56:24.137Z,3.95
2022-11-21T06:58:50.690Z,3.98
2022-11-21T07:01:17.331Z,4.05
2022-11-21T07:03:46.477Z,4.17
2022-11-21T07:06:13.036Z,4.28
2022-11-21T07:08:42.097Z,4.37
2022-11-21T07:11:27.250Z,4.49
2022-11-21T07:13:53.877Z,4.59
2022-11-21T07:16:25.011Z,4.63
2022-11-21T07:18:51.545Z,4.65
2022-11-21T07:21:18.076Z,4.74
2022-11-21T07:23:44.705Z,4.77
2022-11-21T07:26:11.269Z,4.72
2022-11-21T07:28:40.836Z,4.53
2022-11-21T07:31:13.460Z,4.59
2022-11-21T07:33:47.528Z,4.68
2022-11-21T07:36:14.252Z,4.74
2022-11-21T07:38:41.771Z,4.82
2022-11-21T07:41:09.024Z,4.82
2022-11-21T07:43:35.665Z,4.82
2022-11-21T07:46:02.349Z,4.82
2022-11-21T07:48:29.095Z,4.80
2022-11-21T07:50:58.552Z,4.83
2022-11-21T07:53:25.242Z,4.90
2022-11-21T07:55:51.877Z,4.86
2022-11-21T07:58:18.514Z,4.91
2022-11-21T08:00:45.197Z,4.92
2022-11-21T08:03:12.625Z,4.99
2022-11-21T08:05:42.993Z,4.88
2022-11-21T08:08:10.306Z,4.90
2022-11-21T08:10:37.783Z,4.80
2022-11-21T08:13:06.899Z,4.62
2022-11-21T08:15:36.182Z,4.74
2022-11-21T08:18:11.137Z,4.83
2022-11-21T08:20:37.779Z,5.08
2022-11-21T08:23:06.669Z,5.41
2022-11-21T08:25:37.171Z,5.68
2022-11-21T08:28:04.784Z,5.47
2022-11-21T08:30:31.944Z,5.68
2022-11-21T08:33:01.373Z,5.80
2022-11-21T08:35:28.144Z,5.94
2022-11-21T08:38:00.910Z,5.90
2022-11-21T08:40:28.047Z,5.83
2022-11-21T08:42:58.517Z,5.95
2022-11-21T08:45:27.668Z,6.01
2022-11-21T08:47:56.681Z,6.10
2022-11-21T08:50:23.800Z,6.17
2022-11-21T08:52:50.491Z,6.28
2022-11-21T08:55:19.676Z,6.34
2022-11-21T08:57:46.215Z,6.42
2022-11-21T09:00:13.218Z,6.48
2022-11-21T09:02:42.072Z,6.50
2022-11-21T09:05:15.682Z,6.50
2022-11-21T09:07:42.438Z,6.49
2022-11-21T09:10:09.425Z,6.44
2022-11-21T09:12:36.119Z,6.41
2022-11-21T09:15:23.773Z,6.44
2022-11-21T09:18:07.193Z,6.52
2022-11-21T09:20:34.789Z,6.55
2022-11-21T09:23:12.908Z,6.42
2022-11-21T09:25:40.099Z,6.57
2022-11-21T09:28:10.072Z,6.59
2022-11-21T09:30:36.723Z,6.62
2022-11-21T09:33:04.069Z,6.83
2022-11-21T09:35:30.661Z,6.96
2022-11-21T09:37:57.476Z,7.03
2022-11-21T09:40:26.337Z,6.91
2022-11-21T09:43:11.677Z,7.06
2022-11-21T09:45:58.436Z,7.11
2022-11-21T09:48:28.044Z,7.00
2022-11-21T09:50:55.082Z,7.03
2022-11-21T09:53:21.566Z,7.06
2022-11-21T09:55:57.064Z,7.10
2022-11-21T09:58:23.809Z,7.29
2022-11-21T10:00:53.216Z,7.31
2022-11-21T10:03:22.462Z,7.31
2022-11-21T10:05:55.500Z,7.19
2022-11-21T10:08:30.196Z,7.19
2022-11-21T10:10:58.616Z,7.17
2022-11-21T10:13:31.742Z,7.24
2022-11-21T10:16:00.565Z,7.30
2022-11-21T10:18:29.720Z,7.45
2022-11-21T10:21:21.123Z,7.63
2022-11-21T10:23:55.249Z,7.79
2022-11-21T10:26:40.733Z,7.98
2022-11-21T10:29:11.135Z,8.07
2022-11-21T10:31:38.454Z,8.13
2022-11-21T10:34:10.213Z,8.19
2022-11-21T10:36:37.048Z,8.21
2022-11-21T10:39:06.604Z,8.22
2022-11-21T10:41:38.891Z,8.30
2022-11-21T10:44:33.395Z,8.39
2022-11-21T10:47:00.520Z,8.42
2022-11-21T10:49:28.350Z,8.49
2022-11-21T10:52:06.961Z,8.60
2022-11-21T10:54:33.633Z,8.68
2022-11-21T10:57:19.010Z,8.64
2022-11-21T11:00:02.116Z,8.48
2022-11-21T11:02:28.691Z,8.41
2022-11-21T11:05:17.637Z,8.43
2022-11-21T11:08:01.212Z,8.44
2022-11-21T11:10:28.517Z,8.46
2022-11-21T11:13:44.049Z,8.41
2022-11-21T11:16:00.578Z,8.39
2022-11-21T11:18:32.219Z,8.23
2022-11-21T11:21:17.692Z,8.27
2022-11-21T11:23:44.663Z,8.37
2022-11-21T11:26:20.339Z,8.46
2022-11-21T11:28:47.936Z,8.44
2022-11-21T11:31:16.893Z,8.38
2022-11-21T11:33:50.778Z,8.46
2022-11-21T11:36:23.424Z,8.47
2022-11-21T11:38:53.856Z,8.34
2022-11-21T11:42:00.709Z,8.29
2022-11-21T11:44:50.085Z,8.45
2022-11-21T11:47:32.611Z,8.67
2022-11-21T11:50:12.978Z,8.85
2022-11-21T11:52:42.336Z,9.03
2022-11-21T11:55:19.092Z,9.43
2022-11-21T11:57:47.985Z,9.64
2022-11-21T12:00:41.054Z,9.75
2022-11-21T12:03:15.324Z,9.50
2022-11-21T12:05:46.957Z,9.25
2022-11-21T12:08:40.978Z,9.06
2022-11-21T12:11:35.207Z,9.19
2022-11-21T12:14:04.674Z,9.46
2022-11-21T12:16:31.182Z,9.55
2022-11-21T12:19:02.502Z,9.81
2022-11-21T12:21:31.432Z,10.02
2022-11-21T12:23:58.439Z,10.09
2022-11-21T12:26:28.199Z,10.06
2022-11-21T12:29:13.324Z,9.81
2022-11-21T12:31:42.809Z,9.70
2022-11-21T12:34:15.522Z,9.85
2022-11-21T12:37:02.822Z,9.99
2022-11-21T12:39:39.202Z,10.05
2022-11-21T12:42:43.211Z,10.37
2022-11-21T12:45:14.968Z,10.68
2022-11-21T12:48:19.247Z,11.18
2022-11-21T12:51:24.464Z,11.97
2022-11-21T12:54:20.228Z,12.28
2022-11-21T12:56:52.112Z,12.60
2022-11-21T12:59:18.666Z,12.68
2022-11-21T13:01:51.554Z,12.82
2022-11-21T13:04:23.203Z,12.81
2022-11-21T13:06:49.811Z,12.42
2022-11-21T13:09:16.894Z,12.10
2022-11-21T13:12:02.334Z,11.76
2022-11-21T13:14:37.544Z,11.43
2022-11-21T13:17:07.174Z,11.01
2022-11-21T13:19:55.768Z,11.03
2022-11-21T13:22:37.585Z,10.95
2022-11-21T13:25:09.467Z,10.78
2022-11-21T13:27:38.784Z,10.91
2022-11-21T13:30:08.212Z,11.18
2022-11-21T13:32:40.788Z,11.57
2022-11-21T13:35:16.575Z,12.41
2022-11-21T13:37:51.929Z,13.13
2022-11-21T13:40:38.810Z,13.81
2022-11-21T13:43:35.566Z,13.54
2022-11-21T13:46:02.400Z,13.32
2022-11-21T13:48:30.619Z,13.26
2022-11-21T13:51:03.388Z,13.23
2022-11-21T13:53:42.301Z,13.18
2022-11-21T13:56:08.961Z,12.70
2022-11-21T13:58:51.733Z,12.30
2022-11-21T14:01:24.514Z,11.46
2022-11-21T14:04:06.290Z,10.73
2022-11-21T14:06:39.097Z,10.44
2022-11-21T14:09:05.708Z,10.09
2022-11-21T14:11:34.907Z,9.86
2022-11-21T14:14:01.522Z,9.72
2022-11-21T14:16:35.381Z,9.57
2022-11-21T14:19:06.816Z,9.05
2022-11-21T14:21:35.442Z,8.58
2022-11-21T14:24:13.253Z,8.20
2022-11-21T14:26:51.581Z,8.17
2022-11-21T14:29:19.441Z,7.97
2022-11-21T14:31:48.720Z,8.03
2022-11-21T14:34:25.622Z,8.04
2022-11-21T14:36:52.574Z,7.95
2022-11-21T14:39:44.365Z,7.82
2022-11-21T14:42:15.415Z,7.72
2022-11-21T14:44:42.168Z,7.52
2022-11-21T14:47:23.484Z,7.48
2022-11-21T14:49:57.004Z,7.48
2022-11-21T14:52:26.889Z,7.49
2022-11-21T14:55:27.909Z,7.44
2022-11-21T14:57:42.393Z,7.55
2022-11-21T15:00:10.238Z,7.61
2022-11-21T15:02:39.179Z,7.48
2022-11-21T15:05:07.940Z,7.47
2022-11-21T15:07:42.419Z,7.61
2022-11-21T15:13:09.750Z,7.74
2022-11-21T15:15:43.547Z,7.75
2022-11-21T15:18:27.594Z,7.72
2022-11-21T15:20:55.465Z,7.88
2022-11-21T15:23:28.997Z,7.74
2022-11-21T15:26:01.325Z,7.62
2022-11-21T15:28:28.774Z,7.37
2022-11-21T15:31:14.185Z,7.39
2022-11-21T15:34:33.102Z,7.23
2022-11-21T15:37:08.541Z,7.12
2022-11-21T15:39:36.033Z,7.07
2022-11-21T15:42:21.293Z,7.07
2022-11-21T15:45:00.050Z,7.01
2022-11-21T15:47:29.130Z,6.92
2022-11-21T15:49:55.676Z,6.97
2022-11-21T15:52:22.214Z,7.02
2022-11-21T15:54:48.874Z,6.96
2022-11-21T15:57:15.394Z,7.69
2022-11-21T15:59:50.393Z,6.83
2022-11-21T16:02:17.108Z,6.88
2022-11-21T16:04:46.025Z,6.95
2022-11-21T16:07:12.674Z,7.02
2022-11-21T16:09:41.007Z,6.96
2022-11-21T16:12:08.574Z,7.04
2022-11-21T16:14:35.124Z,6.97
2022-11-21T16:17:01.751Z,7.07
2022-11-21T16:19:31.193Z,7.08
2022-11-21T16:21:58.606Z,6.95
2022-11-21T16:24:27.523Z,7.05
2022-11-21T16:26:55.475Z,7.18
2022-11-21T16:29:22.007Z,7.32
2022-11-21T16:31:49.984Z,7.36
2022-11-21T16:34:19.828Z,7.31
2022-11-21T16:36:48.720Z,7.27
2022-11-21T16:39:18.473Z,7.18
2022-11-21T16:41:59.189Z,7.17
2022-11-21T16:44:26.857Z,7.14
2022-11-21T16:46:55.479Z,7.12
2022-11-21T16:49:23.627Z,7.08
2022-11-21T16:51:56.558Z,6.99
2022-11-21T16:54:25.875Z,6.96
2022-11-21T16:56:52.833Z,6.95
2022-11-21T16:59:22.352Z,6.96
2022-11-21T17:01:50.284Z,6.81
2022-11-21T17:04:17.829Z,6.75
2022-11-21T17:06:48.958Z,6.66
2022-11-21T17:09:16.418Z,6.65
2022-11-21T17:11:46.344Z,6.59
2022-11-21T17:14:18.307Z,6.45
2022-11-21T17:16:48.880Z,6.33
2022-11-21T17:19:18.505Z,6.25
2022-11-21T17:21:47.643Z,6.12
2022-11-21T17:24:14.294Z,6.14
2022-11-21T17:26:40.887Z,6.22
2022-11-21T17:29:07.592Z,6.30
2022-11-21T17:31:37.026Z,6.22
2022-11-21T17:34:03.974Z,6.12
2022-11-21T17:36:30.944Z,6.09
2022-11-21T17:39:00.409Z,6.00
2022-11-21T17:41:29.675Z,6.01
2022-11-21T17:43:57.384Z,5.97
2022-11-21T17:46:25.723Z,5.94
2022-11-21T17:48:58.037Z,5.90
2022-11-21T17:51:26.802Z,5.95
2022-11-21T17:53:56.173Z,5.97
2022-11-21T17:56:24.207Z,5.98
2022-11-21T17:58:52.925Z,5.92
2022-11-21T18:01:22.336Z,5.90
2022-11-21T18:03:54.629Z,5.85
2022-11-21T18:06:23.609Z,5.93
2022-11-21T18:08:50.317Z,5.93
2022-11-21T18:11:18.527Z,6.02
2022-11-21T18:13:45.273Z,6.09
2022-11-21T18:16:12.636Z,6.01
2022-11-21T18:18:39.566Z,6.02
2022-11-21T18:21:16.564Z,6.01
2022-11-21T18:23:44.361Z,6.10
2022-11-21T18:26:15.456Z,6.14
2022-11-21T18:28:44.617Z,6.11
2022-11-21T18:31:15.792Z,6.00
2022-11-21T18:33:42.921Z,6.02
2022-11-21T18:36:10.264Z,6.07
2022-11-21T18:38:48.700Z,6.03
2022-11-21T18:41:17.866Z,6.04
2022-11-21T18:43:45.226Z,6.12
2022-11-21T18:46:16.480Z,6.07
2022-11-21T18:49:01.976Z,6.04
2022-11-21T18:51:35.356Z,6.06
2022-11-21T18:54:07.471Z,6.16
2022-11-21T18:56:34.654Z,6.12
2022-11-21T18:59:01.934Z,6.17
2022-11-21T19:01:29.147Z,6.23
2022-11-21T19:03:56.052Z,6.27
2022-11-21T19:06:26.146Z,6.33
2022-11-21T19:08:55.845Z,6.40
2022-11-21T19:11:24.584Z,6.36
2022-11-21T19:13:51.592Z,6.27
2022-11-21T19:16:19.686Z,6.28
2022-11-21T19:19:00.173Z,6.34
2022-11-21T19:21:35.567Z,6.29
2022-11-21T19:24:07.280Z,6.36
2022-11-21T19:26:33.888Z,6.43
2022-11-21T19:29:03.475Z,6.48
2022-11-21T19:31:29.994Z,6.50
2022-11-21T19:33:58.254Z,6.47
2022-11-21T19:36:29.476Z,6.42
2022-11-21T19:38:56.036Z,6.38
2022-11-21T19:41:26.730Z,6.27
2022-11-21T19:43:57.268Z,6.20
2022-11-21T19:46:24.917Z,6.16
2022-11-21T19:48:57.288Z,6.16
2022-11-21T19:51:25.077Z,6.13
2022-11-21T19:53:51.759Z,6.03
2022-11-21T19:56:19.265Z,5.95
2022-11-21T19:58:46.018Z,5.92
2022-11-21T20:01:16.944Z,5.82
2022-11-21T20:03:44.654Z,5.81
2022-11-21T20:06:19.920Z,5.82
2022-11-21T20:08:50.191Z,5.88
2022-11-21T20:11:20.734Z,5.92
2022-11-21T20:13:50.027Z,5.92
2022-11-21T20:16:21.533Z,5.93
2022-11-21T20:18:50.864Z,5.92
2022-11-21T20:21:20.557Z,5.91
2022-11-21T20:23:48.740Z,5.89
2022-11-21T20:26:16.303Z,5.87
2022-11-21T20:28:42.855Z,5.85
2022-11-21T20:31:09.880Z,5.82
2022-11-21T20:33:46.293Z,5.81
2022-11-21T20:36:18.483Z,5.81
2022-11-21T20:38:55.510Z,5.80
2022-11-21T20:41:25.511Z,5.76
2022-11-21T20:46:42.135Z,5.71
2022-11-21T20:49:11.327Z,5.63
2022-11-21T20:54:27.525Z,5.54
2022-11-21T20:56:56.638Z,5.52
2022-11-21T20:59:25.606Z,5.52
2022-11-21T21:01:52.127Z,5.51
2022-11-21T21:04:19.189Z,5.49
2022-11-21T21:06:48.392Z,5.45
2022-11-21T21:09:17.573Z,5.39
2022-11-21T21:11:52.628Z,5.41
2022-11-21T21:14:20.364Z,5.37
2022-11-21T21:16:49.397Z,5.35
2022-11-21T21:19:16.400Z,5.32
2022-11-21T21:21:42.947Z,5.28
2022-11-21T21:24:10.173Z,5.24
2022-11-21T21:26:42.613Z,5.22
2022-11-21T21:29:13.097Z,5.28
2022-11-21T21:31:42.708Z,5.39
2022-11-21T21:34:12.084Z,5.41
2022-11-21T21:36:38.635Z,5.48
2022-11-21T21:39:09.771Z,5.51
2022-11-21T21:41:39.926Z,5.58
2022-11-21T21:44:06.770Z,5.69
2022-11-21T21:46:37.258Z,5.81
2022-11-21T21:49:04.244Z,5.84
2022-11-21T21:51:33.142Z,5.88
2022-11-21T21:53:59.728Z,5.95
2022-11-21T21:56:27.092Z,5.96
2022-11-21T21:58:56.077Z,6.00
2022-11-21T22:01:22.684Z,6.08
2022-11-21T22:03:52.259Z,6.17
2022-11-21T22:06:18.844Z,6.21
2022-11-21T22:08:48.138Z,6.28
2022-11-21T22:11:18.785Z,6.38
2022-11-21T22:13:46.280Z,6.43
2022-11-21T22:16:15.289Z,6.31
2022-11-21T22:18:41.924Z,6.30
2022-11-21T22:21:21.799Z,6.38
2022-11-21T22:24:22.866Z,6.51
2022-11-21T22:26:39.783Z,6.53
2022-11-21T22:29:06.457Z,6.52
2022-11-21T22:31:33.080Z,6.55
2022-11-21T22:33:59.934Z,6.53
2022-11-21T22:36:31.587Z,6.57
2022-11-21T22:39:00.345Z,6.62
2022-11-21T22:41:31.497Z,6.64
2022-11-21T22:43:58.917Z,6.70
2022-11-21T22:46:28.604Z,6.74
2022-11-21T22:48:55.244Z,6.66
2022-11-21T22:51:25.871Z,6.65
2022-11-21T22:53:55.017Z,6.65
2022-11-21T22:56:22.468Z,6.65
2022-11-21T22:58:51.583Z,6.54
2022-11-21T23:01:19.578Z,6.48
2022-11-21T23:03:46.528Z,6.44
2022-11-21T23:06:17.547Z,6.32
2022-11-21T23:08:44.325Z,6.18
2022-11-21T23:11:15.350Z,6.19
2022-11-21T23:13:42.869Z,6.18
2022-11-21T23:16:09.739Z,6.16
2022-11-21T23:18:36.598Z,6.17
2022-11-21T23:21:03.490Z,6.17
2022-11-21T23:23:30.056Z,6.12
2022-11-21T23:26:01.475Z,6.16
2022-11-21T23:28:28.059Z,6.24
2022-11-21T23:30:59.191Z,6.30
2022-11-21T23:33:25.782Z,6.39
2022-11-21T23:35:54.903Z,6.42
2022-11-21T23:38:22.049Z,6.44
2022-11-21T23:40:48.938Z,6.47
2022-11-21T23:43:15.837Z,6.47
2022-11-21T23:45:45.546Z,6.50
2022-11-21T23:48:12.185Z,6.51
2022-11-21T23:50:39.917Z,6.49
2022-11-21T23:53:06.582Z,6.48
2022-11-21T23:55:36.110Z,6.45
2022-11-21T23:58:04.069Z,6.48
